Time;durP1;ratioP1;P1;durP2;ratioP2;P2;SDS_P1;SDS_P2;PMS_P1;PMS_P2;Temp;Humidity;BMP_temperature;BMP_pressure;BME280_temperature;BME280_humidity;BME280_pressure;Samples;Min_cycle;Max_cycle;Signal;HPM_P1;HPM_P2
2021/01/29 00:06:16;;;;;;;12.87;11.43;;;;;;;;;;15533308;28;20196;-84
2021/01/29 00:13:44;;;;;;;13.93;12.53;;;;;;;;;;15517515;28;20611;-90
2021/01/29 00:21:11;;;;;;;15.07;13.57;;;;;;;;;;15517516;28;20220;-86
2021/01/29 00:28:38;;;;;;;14.30;12.87;;;;;;;;;;15533498;28;20188;-86
2021/01/29 00:36:06;;;;;;;14.90;13.40;;;;;;;;;;15532050;28;20239;-88
2021/01/29 00:43:33;;;;;;;15.70;14.20;;;;;;;;;;15534645;28;20227;-90
2021/01/29 00:51:00;;;;;;;13.80;12.40;;;;;;;;;;15514795;28;20625;-86
2021/01/29 00:58:29;;;;;;;14.47;12.97;;;;;;;;;;15514600;28;20208;-87
2021/01/29 01:06:25;;;;;;;14.90;13.40;;;;;;;;;;15458318;28;20211;-87
2021/01/29 01:14:16;;;;;;;15.87;14.27;;;;;;;;;;15511546;28;20285;-88
2021/01/29 01:21:43;;;;;;;17.47;15.73;;;;;;;;;;15549987;28;20529;-87
2021/01/29 01:29:29;;;;;;;16.20;14.50;;;;;;;;;;15533002;28;20220;-87
2021/01/29 01:37:13;;;;;;;19.40;17.47;;;;;;;;;;15546987;28;20204;-85
2021/01/29 01:45:45;;;;;;;18.53;16.63;;;6.80;77.70;;;;;;15526099;28;20408;-85
2021/01/29 01:53:17;;;;;;;17.17;15.47;;;;;;;;;;15526692;28;20593;-87
2021/01/29 02:01:03;;;;;;;18.97;17.07;;;;;;;;;;15542557;28;20682;-86
2021/01/29 02:08:52;;;;;;;19.47;17.37;;;;;;;;;;15546284;28;20196;-85
2021/01/29 02:16:47;;;;;;;18.60;16.70;;;5.90;78.30;;;;;;15545946;28;20223;-88
2021/01/29 02:25:03;;;;;;;19.07;17.17;;;6.10;78.50;;;;;;15527882;28;20192;-86
2021/01/29 02:32:57;;;;;;;20.53;18.43;;;;;;;;;;15526586;28;20269;-84
2021/01/29 02:40:31;;;;;;;22.30;20.00;;;;;;;;;;15527381;28;20257;-86
2021/01/29 02:48:12;;;;;;;21.77;19.43;;;;;;;;;;15527041;28;20212;-85
2021/01/29 02:56:13;;;;;;;21.07;19.03;;;;;;;;;;15510091;28;20212;-84
2021/01/29 03:04:06;;;;;;;21.83;19.53;;;5.90;78.60;;;;;;15529474;28;20245;-84
2021/01/29 03:11:54;;;;;;;20.67;18.47;;;5.90;78.80;;;;;;15526663;28;20184;-85
2021/01/29 03:19:41;;;;;;;20.83;18.83;;;;;;;;;;15539043;28;20253;-86
2021/01/29 03:27:36;;;;;;;21.50;19.20;;;6.00;78.90;;;;;;15620262;28;20261;-87
2021/01/29 03:35:29;;;;;;;21.03;18.83;;;5.40;78.40;;;;;;15540765;28;20235;-88
2021/01/29 03:43:25;;;;;;;20.63;18.40;;;6.50;79.30;;;;;;15541679;28;20204;-87
2021/01/29 03:51:14;;;;;;;20.00;17.90;;;6.50;79.00;;;;;;15539334;28;20180;-88
2021/01/29 03:59:03;;;;;;;21.17;18.10;;;;;;;;;;15554349;28;20207;-89
2021/01/29 04:07:07;;;;;;;23.07;18.37;;;5.60;78.60;;;;;;15529449;28;20218;-88
2021/01/29 04:15:12;;;;;;;21.20;17.57;;;5.80;78.80;;;;;;15554258;28;20224;-88
2021/01/29 04:22:41;;;;;;;21.97;17.90;;;;;;;;;;15552311;28;20217;-86
2021/01/29 04:30:13;;;;;;;20.43;18.00;;;;;;;;;;15531764;28;20234;-85
2021/01/29 04:37:42;;;;;;;25.53;19.33;;;;;;;;;;15531960;28;20665;-87
2021/01/29 04:45:21;;;;;;;21.77;18.97;;;;;;;;;;15531912;28;20211;-88
2021/01/29 04:53:12;;;;;;;21.83;17.13;;;;;;;;;;15533554;28;20184;-87
2021/01/29 05:01:01;;;;;;;19.57;17.10;;;;;;;;;;15533721;28;20701;-88
2021/01/29 05:09:12;;;;;;;20.23;16.50;;;5.50;78.00;;;;;;15537666;28;20191;-87
2021/01/29 05:17:52;;;;;;;22.03;18.10;;;6.10;78.70;;;;;;15520211;28;20271;-89
2021/01/29 05:25:52;;;;;;;23.30;18.33;;;5.70;78.80;;;;;;15534426;28;20200;-87
2021/01/29 05:33:25;;;;;;;23.33;19.00;;;;;;;;;;15531636;28;20216;-89
2021/01/29 05:41:14;;;;;;;22.60;20.20;;;;;;;;;;15501151;28;20544;-88
2021/01/29 05:48:54;;;;;;;22.90;20.37;;;;;;;;;;15515669;28;20287;-87
2021/01/29 05:56:30;;;;;;;23.07;19.93;;;;;;;;;;15533743;28;20279;-91
2021/01/29 06:04:18;;;;;;;24.67;20.63;;;;;;;;;;15533259;28;20649;-89
2021/01/29 06:11:50;;;;;;;21.47;18.80;;;;;;;;;;15537813;28;20255;-87
2021/01/29 06:19:43;;;;;;;22.17;19.83;;;;;;;;;;15529656;28;20215;-87
2021/01/29 06:27:34;;;;;;;22.17;19.77;;;;;;;;;;15557335;28;20207;-88
2021/01/29 06:35:38;;;;;;;22.70;20.30;;;5.30;78.50;;;;;;15562451;28;20220;-92
2021/01/29 06:43:17;;;;;;;23.60;21.10;;;;;;;;;;15585622;28;20230;-90
2021/01/29 06:51:06;;;;;;;23.20;20.67;;;;;;;;;;15563753;28;20681;-84
2021/01/29 06:58:46;;;;;;;22.10;19.73;;;;;;;;;;15561257;28;20219;-86
2021/01/29 07:06:33;;;;;;;18.57;16.50;;;7.20;78.00;;;;;;15527123;28;20207;-86
2021/01/29 07:14:09;;;;;;;19.73;15.63;;;;;;;;;;15558019;28;20253;-86
2021/01/29 07:22:04;;;;;;;18.33;16.43;;;;;;;;;;15537756;28;20295;-89
2021/01/29 07:29:50;;;;;;;18.43;15.50;;;5.60;77.80;;;;;;15551761;28;20223;-86
2021/01/29 07:38:00;;;;;;;18.40;16.43;;;5.90;78.00;;;;;;15534832;28;20180;-87
2021/01/29 07:45:54;;;;;;;20.47;18.37;;;;;;;;;;15554666;28;20701;-87
2021/01/29 07:53:32;;;;;;;18.87;15.63;;;;;;;;;;15535724;28;20199;-87
2021/01/29 08:01:20;;;;;;;17.10;15.27;;;;;;;;;;15517442;28;20223;-86
2021/01/29 08:08:54;;;;;;;13.93;12.53;;;5.30;76.60;;;;;;15521151;28;20215;-87
2021/01/29 08:17:06;;;;;;;14.60;13.07;;;6.00;77.00;;;;;;15537808;28;20572;-88
2021/01/29 08:24:52;;;;;;;13.37;11.97;;;8.40;78.30;;;;;;15533981;28;20220;-88
2021/01/29 08:32:40;;;;;;;13.40;12.00;;;;;;;;;;15552810;28;20220;-87
2021/01/29 08:40:25;;;;;;;14.63;13.00;;;;;;;;;;15537659;28;20238;-90
2021/01/29 08:47:56;;;;;;;14.67;13.17;;;;;;;;;;15577535;28;20623;-85
2021/01/29 09:03:26;;;;;;;15.13;13.50;;;;;;;;;;15560170;28;20291;-88
2021/01/29 09:11:13;;;;;;;14.57;13.10;;;;;;;;;;15542479;28;20217;-87
2021/01/29 09:18:45;;;;;;;13.57;12.17;;;;;;;;;;15536359;28;20235;-86
2021/01/29 09:26:19;;;;;;;14.00;12.60;;;;;;;;;;15552447;28;20180;-87
2021/01/29 09:33:55;;;;;;;17.07;14.13;;;;;;;;;;15548155;28;20246;-89
2021/01/29 09:41:24;;;;;;;15.50;13.93;;;;;;;;;;15562993;28;20264;-88
2021/01/29 09:48:58;;;;;;;15.40;13.63;;;;;;;;;;15537534;28;20219;-82
2021/01/29 09:56:26;;;;;;;14.30;12.90;;;;;;;;;;15590574;28;20217;-90
2021/01/29 10:03:57;;;;;;;16.73;15.03;;;;;;;;;;15599926;28;20200;-90
2021/01/29 10:11:37;;;;;;;16.17;14.57;;;;;;;;;;15567014;28;20244;-84
2021/01/29 10:19:15;;;;;;;16.17;14.17;;;;;;;;;;15491251;28;20302;-79
2021/01/29 10:26:49;;;;;;;15.20;13.70;;;;;;;;;;15523169;28;20455;-80
2021/01/29 10:34:23;;;;;;;17.53;15.20;;;;;;;;;;15490537;28;20255;-84
2021/01/29 10:41:58;;;;;;;16.50;14.90;;;;;;;;;;15491232;28;20217;-84
2021/01/29 10:49:29;;;;;;;17.20;15.13;;;;;;;;;;15471818;28;20232;-82
2021/01/29 10:57:06;;;;;;;16.83;15.13;;;7.40;76.20;;;;;;15488859;28;20592;-82
2021/01/29 11:04:38;;;;;;;17.70;15.80;;;8.30;76.90;;;;;;15487315;28;20240;-82
2021/01/29 11:12:26;;;;;;;21.03;18.77;;;8.30;77.60;;;;;;15490665;28;20192;-82
2021/01/29 11:19:57;;;;;;;18.40;15.07;;;;;;;;;;15487712;28;20221;-83
2021/01/29 11:27:33;;;;;;;19.47;17.30;;;7.90;77.70;;;;;;15487754;28;20565;-82
2021/01/29 11:35:12;;;;;;;24.13;17.47;;;;;;;;;;15487285;28;20244;-84
2021/01/29 11:42:52;;;;;;;19.33;17.33;;;;;;;;;;15502463;28;20209;-89
2021/01/29 11:50:23;;;;;;;21.97;19.67;;;;;;;;;;15483143;28;20228;-91
2021/01/29 11:58:09;;;;;;;23.73;20.83;;;;;;;;;;15539672;28;20242;-92
2021/01/29 12:05:46;;;;;;;24.53;22.10;;;;;;;;;;15517832;28;20184;-91
2021/01/29 12:13:20;;;;;;;27.33;23.17;;;;;;;;;;15536554;28;20654;-92
2021/01/29 12:20:51;;;;;;;27.93;24.17;;;;;;;;;;15513104;28;20262;-92
2021/01/29 12:28:34;;;;;;;35.33;31.53;;;;;;;;;;15496153;28;20192;-88
2021/01/29 12:36:02;;;;;;;32.73;29.20;;;;;;;;;;15484615;28;20259;-81
2021/01/29 12:44:03;;;;;;;39.90;30.77;;;;;;;;;;15482793;28;20235;-82
2021/01/29 12:51:39;;;;;;;34.33;27.83;;;7.20;79.90;;;;;;15465685;28;20677;-80
2021/01/29 12:59:30;;;;;;;34.13;29.87;;;;;;;;;;15479565;28;20609;-81
2021/01/29 13:07:08;;;;;;;37.73;31.73;;;7.40;80.60;;;;;;15462126;28;20201;-89
2021/01/29 13:14:42;;;;;;;47.20;38.37;;;;;;;;;;15461903;28;20783;-86
2021/01/29 13:22:24;;;;;;;47.20;41.13;;;;;;;;;;15464774;28;20200;-83
2021/01/29 13:29:54;;;;;;;51.03;43.07;;;;;;;;;;15477683;28;20232;-86
2021/01/29 13:37:23;;;;;;;47.40;40.70;;;;;;;;;;15482895;28;20531;-86
2021/01/29 13:44:53;;;;;;;45.93;36.50;;;;;;;;;;15464542;28;20587;-86
2021/01/29 13:52:22;;;;;;;40.50;35.30;;;;;;;;;;15450196;28;20208;-87
2021/01/29 13:59:52;;;;;;;33.57;30.07;;;;;;;;;;15464413;28;20215;-85
2021/01/29 14:07:19;;;;;;;35.57;31.77;;;;;;;;;;15471039;28;20192;-86
2021/01/29 14:14:52;;;;;;;33.83;30.33;;;;;;;;;;15497651;28;20221;-86
2021/01/29 14:22:25;;;;;;;33.70;30.17;;;;;;;;;;15466434;28;20572;-86
2021/01/29 14:30:00;;;;;;;37.50;32.67;;;;;;;;;;15480162;28;20220;-85
2021/01/29 14:37:42;;;;;;;33.63;30.17;;;8.30;82.80;;;;;;15468272;28;20299;-87
2021/01/29 14:45:20;;;;;;;37.50;32.63;;;;;;;;;;15465282;28;20243;-86
2021/01/29 14:52:58;;;;;;;33.73;30.27;;;7.50;82.20;;;;;;15464327;28;20181;-85
2021/01/29 15:00:30;;;;;;;38.43;33.17;;;;;;;;;;15480197;28;20663;-85
2021/01/29 15:07:59;;;;;;;35.07;30.20;;;;;;;;;;15479952;28;20185;-88
2021/01/29 15:15:38;;;;;;;37.57;32.20;;;8.00;83.00;;;;;;15485689;28;20217;-85
2021/01/29 15:23:10;;;;;;;35.10;31.13;;;;;;;;;;15491355;28;20201;-87
2021/01/29 15:30:41;;;;;;;37.50;32.93;;;;;;;;;;15489707;28;20600;-88
2021/01/29 15:38:10;;;;;;;36.13;31.50;;;;;;;;;;15472661;28;20204;-89
2021/01/29 15:45:56;;;;;;;36.37;32.40;;;;;;;;;;15437496;28;20228;-86
2021/01/29 15:53:56;;;;;;;34.87;29.13;;;9.00;83.30;;;;;;15488839;28;20189;-83
2021/01/29 16:01:41;;;;;;;32.60;28.93;;;;;;;;;;15434664;28;20239;-87
2021/01/29 16:09:16;;;;;;;28.63;25.63;;;;;;;;;;15486369;28;20206;-86
2021/01/29 16:16:45;;;;;;;31.80;28.40;;;;;;;;;;15469769;28;20212;-87
2021/01/29 16:24:13;;;;;;;30.00;27.00;;;;;;;;;;15490011;28;20242;-87
2021/01/29 16:31:41;;;;;;;29.87;26.60;;;;;;;;;;15469614;28;20422;-87
2021/01/29 16:39:17;;;;;;;26.93;24.23;;;;;;;;;;15467272;28;20218;-86
2021/01/29 16:46:46;;;;;;;25.00;22.27;;;;;;;;;;15493032;28;20292;-87
2021/01/29 16:54:19;;;;;;;25.07;22.47;;;;;;;;;;15484783;28;20209;-83
2021/01/29 17:01:51;;;;;;;23.33;20.87;;;;;;;;;;15449710;28;20298;-86
2021/01/29 17:09:29;;;;;;;25.13;22.53;;;;;;;;;;15482323;28;20181;-85
2021/01/29 17:16:58;;;;;;;23.30;20.00;;;;;;;;;;15466481;28;20237;-86
2021/01/29 17:24:26;;;;;;;22.83;20.43;;;;;;;;;;15484069;28;20209;-87
2021/01/29 17:31:59;;;;;;;22.53;20.13;;;7.90;84.90;;;;;;15463473;28;20225;-85
2021/01/29 17:39:46;;;;;;;22.87;20.03;;;;;;;;;;15446919;28;20231;-86
2021/01/29 17:47:15;;;;;;;19.70;17.60;;;;;;;;;;15487122;28;20301;-85
2021/01/29 17:54:42;;;;;;;19.23;17.23;;;;;;;;;;15483644;28;20205;-85
2021/01/29 18:02:17;;;;;;;19.90;17.90;;;8.60;84.60;;;;;;15481677;28;20824;-85
2021/01/29 18:10:01;;;;;;;13.57;12.17;;;8.50;83.90;;;;;;15448899;28;20195;-74
2021/01/29 18:17:33;;;;;;;13.90;12.37;;;9.90;82.50;;;;;;15463150;28;20275;-75
2021/01/29 18:25:00;;;;;;;15.23;13.73;;;;;;;;;;15463036;28;20342;-83
2021/01/29 18:32:48;;;;;;;14.43;12.93;;;9.20;82.30;;;;;;15446342;28;20331;-85
2021/01/29 18:40:16;;;;;;;16.73;14.93;;;;;;;;;;15461640;28;20200;-83
2021/01/29 18:47:44;;;;;;;18.30;16.50;;;;;;;;;;15481075;28;20671;-81
2021/01/29 18:55:18;;;;;;;15.87;14.27;;;8.50;83.20;;;;;;15474204;28;20192;-80
2021/01/29 19:02:50;;;;;;;17.70;15.57;;;;;;;;;;15455068;28;20212;-83
2021/01/29 19:10:18;;;;;;;18.07;16.17;;;;;;;;;;15473115;28;20299;-87
2021/01/29 19:17:45;;;;;;;18.03;14.53;;;;;;;;;;15495743;28;20793;-88
2021/01/29 19:25:15;;;;;;;15.20;13.23;;;;;;;;;;15498888;28;20288;-89
2021/01/29 19:32:43;;;;;;;13.33;12.00;;;;;;;;;;15497832;28;20232;-89
2021/01/29 19:40:15;;;;;;;12.33;10.17;;;;;;;;;;15540969;28;20201;-90
2021/01/29 19:47:43;;;;;;;9.67;8.60;;;;;;;;;;15476929;28;20280;-81
2021/01/29 19:55:12;;;;;;;11.40;10.20;;;;;;;;;;15470827;28;20416;-86
2021/01/29 20:02:46;;;;;;;11.47;9.93;;;;;;;;;;15469275;28;20581;-86
2021/01/29 20:10:15;;;;;;;10.33;9.23;;;;;;;;;;15474014;28;20191;-89
2021/01/29 20:17:47;;;;;;;11.30;8.57;;;;;;;;;;15471800;28;20219;-88
2021/01/29 20:25:15;;;;;;;10.90;8.80;;;;;;;;;;15455242;28;20224;-91
2021/01/29 20:32:45;;;;;;;9.57;8.20;;;;;;;;;;15472200;28;20221;-90
2021/01/29 20:40:18;;;;;;;10.43;7.97;;;;;;;;;;15438389;28;20267;-86
2021/01/29 20:47:47;;;;;;;8.93;7.97;;;;;;;;;;15453944;28;20224;-87
2021/01/29 20:55:15;;;;;;;13.13;10.33;;;;;;;;;;15471264;28;20685;-89
2021/01/29 21:02:45;;;;;;;15.33;11.97;;;;;;;;;;15473250;28;20304;-85
2021/01/29 21:10:18;;;;;;;15.50;12.40;;;11.00;82.60;;;;;;15471146;28;20180;-88
2021/01/29 21:17:45;;;;;;;12.73;11.30;;;;;;;;;;15473791;28;20235;-85
2021/01/29 21:25:19;;;;;;;12.47;11.23;;;;;;;;;;15492783;28;20263;-91
2021/01/29 21:32:46;;;;;;;11.70;9.90;;;;;;;;;;15474256;28;20248;-91
2021/01/29 21:40:24;;;;;;;12.07;9.83;;;;;;;;;;15483961;28;20221;-88
2021/01/29 21:47:55;;;;;;;10.37;9.30;;;;;;;;;;15492207;28;20656;-90
2021/01/29 21:55:23;;;;;;;14.33;11.60;;;;;;;;;;15491214;28;20224;-88
2021/01/29 22:02:50;;;;;;;15.93;13.13;;;;;;;;;;15475184;28;20211;-89
2021/01/29 22:10:23;;;;;;;17.00;15.03;;;8.30;80.90;;;;;;15481299;28;20191;-89
2021/01/29 22:17:52;;;;;;;18.07;15.00;;;;;;;;;;15479661;28;20205;-88
2021/01/29 22:25:22;;;;;;;15.33;12.20;;;;;;;;;;15508371;28;20690;-88
2021/01/29 22:32:51;;;;;;;16.97;14.23;;;;;;;;;;15492990;28;20254;-89
2021/01/29 22:40:24;;;;;;;15.67;11.53;;;10.70;82.30;;;;;;15523695;28;20537;-90
2021/01/29 22:47:51;;;;;;;7.83;6.87;;;;;;;;;;15502790;28;20224;-88
2021/01/29 22:55:19;;;;;;;7.00;5.13;;;;;;;;;;15477662;28;20183;-83
2021/01/29 23:02:47;;;;;;;6.40;4.50;;;;;;;;;;15476559;28;20217;-84
2021/01/29 23:10:15;;;;;;;4.40;3.63;;;;;;;;;;15456272;28;20573;-85
2021/01/29 23:17:46;;;;;;;3.10;2.70;;;;;;;;;;15473074;28;20311;-83
2021/01/29 23:25:15;;;;;;;2.23;2.03;;;;;;;;;;15473022;28;20266;-84
2021/01/29 23:32:42;;;;;;;2.67;2.10;;;;;;;;;;15473545;28;20260;-84
2021/01/29 23:40:12;;;;;;;2.33;1.50;;;7.90;77.70;;;;;;15471096;28;20223;-84
2021/01/29 23:47:41;;;;;;;3.40;1.50;;;;;;;;;;15470308;28;20708;-83
2021/01/29 23:55:09;;;;;;;1.80;1.40;;;;;;;;;;15470430;28;20215;-85
